Disclaimer

Please do not use the information listed here in-flight or in-navigation, as they are not provided to us by the airports but are provided by volunteers, so they might be outdated.

Search


Regions


Airport information page

Radio informations:
TASHKENT TWR - 120.4 MHz
TASHKENT GND - 121.7 MHz
TASHKENT KRUG - 119.4 MHz
TASHKENT DELIVER - 129.4 MHz
Automatic Terminal Information Service (ATIS) - 126.8 MHz
TASHKENT APP - 125.2 MHz

Airport informations:
Latitude: 41° 15' 28.30" N
Longitude: 069° 16' 52.27" E
Elevation: 1417 feet - 432 meters
Operating hours: 24 hour operations
Operating agency: Civil government, landing fees and diplomatic clearance may be required
Timezone: UTC+5
Fuel: Jet A1, without icing nhibitor.

Runway information:
08R/26L - 12812 x 148 feet< - >3905 x 45 meters
08L/26R - 13123 x 197 feet< - >4000 x 60 meters

Recent METARs:
UTTT 122100Z 26002KT 4000 BR BKN010 M03/M04 Q1031 R08R/CLRD70 NOSIG
UTTT 122130Z 20004KT 4000 BR NSC M03/M04 Q1031 R08R/CLRD70 NOSIG
UTTT 122200Z 21006KT 3000 BR OVC002 M03/M04 Q1031 R08L/CLRD70 NOSIG RMK BASE260

Airport on the map: